Time;durP1;ratioP1;P1;durP2;ratioP2;P2;SDS_P1;SDS_P2;PMS_P1;PMS_P2;Temp;Humidity;BMP_temperature;BMP_pressure;BME280_temperature;BME280_humidity;BME280_pressure;Samples;Min_cycle;Max_cycle;Signal;HPM_P1;HPM_P2
2023/01/02 00:02:21;;;;;;;58.28;36.70;;;19.50;83.90;;;;;;1791983;79;21092;-82
2023/01/02 00:04:52;;;;;;;52.25;34.85;;;19.50;83.90;;;;;;1814277;79;21154;-81
2023/01/02 00:07:22;;;;;;;54.48;36.80;;;19.50;84.30;;;;;;1815504;78;21182;-81
2023/01/02 00:09:53;;;;;;;57.17;37.28;;;19.50;84.20;;;;;;1799868;77;21143;-80
2023/01/02 00:12:24;;;;;;;57.75;39.08;;;19.50;84.20;;;;;;1832113;77;21095;-82
2023/01/02 00:14:54;;;;;;;53.25;36.88;;;19.50;83.50;;;;;;1814941;78;21092;-83
2023/01/02 00:17:25;;;;;;;47.03;34.80;;;19.40;82.70;;;;;;1815318;79;21084;-82
2023/01/02 00:19:56;;;;;;;53.95;34.65;;;19.50;84.10;;;;;;1812913;79;21092;-81
2023/01/02 00:22:26;;;;;;;54.20;34.08;;;19.50;84.50;;;;;;1819526;78;21091;-81
2023/01/02 00:24:57;;;;;;;46.88;32.73;;;19.60;84.60;;;;;;1801306;79;21131;-80
2023/01/02 00:27:28;;;;;;;45.75;32.35;;;19.60;85.00;;;;;;1792607;79;21155;-81
2023/01/02 00:29:58;;;;;;;50.83;33.85;;;19.50;84.60;;;;;;1815049;79;21080;-81
2023/01/02 00:32:29;;;;;;;51.15;34.85;;;19.50;85.20;;;;;;1813329;79;21100;-80
2023/01/02 00:35:00;;;;;;;54.30;35.95;;;19.50;85.20;;;;;;1806600;79;21096;-80
2023/01/02 00:37:30;;;;;;;53.95;36.10;;;19.50;84.90;;;;;;1803144;78;21068;-81
2023/01/02 00:40:01;;;;;;;51.60;35.00;;;19.60;84.90;;;;;;1809707;79;21095;-81
2023/01/02 00:42:32;;;;;;;51.77;33.08;;;19.60;84.80;;;;;;1807266;77;21216;-81
2023/01/02 00:45:03;;;;;;;48.65;32.35;;;19.60;84.70;;;;;;1818522;78;21178;-80
2023/01/02 00:47:33;;;;;;;46.48;33.23;;;19.70;84.60;;;;;;1814282;78;21405;-80
2023/01/02 00:50:05;;;;;;;47.88;32.30;;;19.80;84.50;;;;;;1812411;79;21068;-80
2023/01/02 00:52:36;;;;;;;44.38;31.65;;;19.80;84.50;;;;;;1808322;79;21076;-81
2023/01/02 00:55:07;;;;;;;45.23;31.73;;;19.80;84.20;;;;;;1808345;79;21155;-80
2023/01/02 00:57:38;;;;;;;43.98;30.12;;;19.90;83.70;;;;;;1792645;79;21197;-81
2023/01/02 01:00:09;;;;;;;42.45;32.70;;;19.90;83.70;;;;;;1814034;78;21150;-82
2023/01/02 01:02:40;;;;;;;49.80;31.70;;;20.00;83.70;;;;;;1792318;78;21166;-81
2023/01/02 01:05:11;;;;;;;45.28;31.10;;;20.00;83.50;;;;;;1797940;78;21505;-81
2023/01/02 01:07:42;;;;;;;43.65;31.20;;;20.00;83.80;;;;;;1814079;78;21142;-81
2023/01/02 01:10:12;;;;;;;44.53;31.62;;;20.00;83.90;;;;;;1809404;78;21174;-81
2023/01/02 01:12:43;;;;;;;43.42;31.07;;;20.00;83.40;;;;;;1804479;79;21072;-81
2023/01/02 01:15:14;;;;;;;47.50;31.77;;;20.00;83.60;;;;;;1811466;78;21072;-81
2023/01/02 01:17:44;;;;;;;47.83;31.60;;;20.10;83.80;;;;;;1796886;78;21067;-80
2023/01/02 01:20:15;;;;;;;48.70;32.78;;;20.20;83.40;;;;;;1802588;78;21092;-81
2023/01/02 01:22:46;;;;;;;42.33;30.15;;;20.30;83.20;;;;;;1815911;78;21092;-81
2023/01/02 01:25:17;;;;;;;44.15;29.57;;;20.30;83.00;;;;;;1800383;78;21115;-81
2023/01/02 01:27:47;;;;;;;39.95;28.67;;;20.40;82.80;;;;;;1814185;77;21146;-81
2023/01/02 01:30:18;;;;;;;41.75;29.23;;;20.50;83.00;;;;;;1810047;77;21217;-80
2023/01/02 01:32:49;;;;;;;42.58;29.48;;;20.60;82.60;;;;;;1799321;79;21112;-81
2023/01/02 01:35:19;;;;;;;40.33;29.55;;;20.70;82.20;;;;;;1828315;78;21095;-81
2023/01/02 01:37:50;;;;;;;41.63;29.48;;;20.70;81.90;;;;;;1815264;79;21103;-80
2023/01/02 01:40:21;;;;;;;44.25;30.88;;;20.80;81.70;;;;;;1820919;78;21414;-82
2023/01/02 01:42:52;;;;;;;44.23;30.05;;;20.90;81.40;;;;;;1806063;79;21088;-79
2023/01/02 01:45:24;;;;;;;37.58;27.95;;;20.90;81.10;;;;;;1839054;77;21538;-71
2023/01/02 01:47:58;;;;;;;41.08;29.10;;;20.90;80.90;;;;;;1831974;77;21094;-71
2023/01/02 01:50:32;;;;;;;39.70;29.37;;;21.00;80.50;;;;;;1805626;78;21258;-71
2023/01/02 01:53:11;;;;;;;41.35;29.87;;;21.00;80.40;;;;;;1837509;77;21276;-71
2023/01/02 01:55:45;;;;;;;41.35;30.00;;;21.00;80.00;;;;;;1819574;77;21114;-71
2023/01/02 01:58:18;;;;;;;44.25;29.70;;;21.00;80.30;;;;;;1824063;77;21662;-70
2023/01/02 02:00:51;;;;;;;44.80;29.75;;;21.00;80.30;;;;;;1818141;77;21152;-70
2023/01/02 02:03:24;;;;;;;42.40;29.45;;;21.00;80.50;;;;;;1824582;77;21161;-70
2023/01/02 02:05:57;;;;;;;39.45;28.30;;;21.10;80.50;;;;;;1818327;77;21096;-70
2023/01/02 02:08:45;;;;;;;41.20;28.47;;;21.10;80.30;;;;;;1814244;77;21216;-71
2023/01/02 02:11:18;;;;;;;41.58;28.75;;;21.10;80.00;;;;;;1811424;77;21099;-71
2023/01/02 02:13:50;;;;;;;40.60;28.25;;;21.10;80.00;;;;;;1834614;77;21078;-71
2023/01/02 02:16:26;;;;;;;40.08;28.25;;;21.20;80.10;;;;;;1812559;77;21507;-70
2023/01/02 02:19:03;;;;;;;42.30;29.77;;;21.20;80.10;;;;;;1799302;77;21099;-71
2023/01/02 02:21:51;;;;;;;42.00;28.38;;;21.30;80.60;;;;;;1767580;80;21210;-69
2023/01/02 02:24:41;;;;;;;43.45;30.17;;;21.30;79.50;;;;;;1767308;79;21123;-70
2023/01/02 02:27:20;;;;;;;40.58;28.25;;;21.40;79.50;;;;;;1801147;80;21086;-69
2023/01/02 02:30:06;;;;;;;39.88;28.25;;;21.40;79.40;;;;;;1821161;77;21216;-69
2023/01/02 02:33:01;;;;;;;42.03;28.47;;;21.50;79.60;;;;;;1778837;79;21099;-71
2023/01/02 02:35:49;;;;;;;40.20;27.95;;;21.50;79.30;;;;;;1755113;80;21174;-69
2023/01/02 02:41:37;;;;;;;37.95;27.50;;;21.60;78.10;;;;;;1823444;77;21247;-71
2023/01/02 02:44:34;;;;;;;39.88;27.93;;;21.70;78.10;;;;;;1823361;77;21227;-70
2023/01/02 02:47:08;;;;;;;39.38;26.15;;;21.60;78.10;;;;;;1821138;77;21093;-70
2023/01/02 02:50:02;;;;;;;35.65;26.37;;;21.70;78.40;;;;;;1842431;77;21626;-70
2023/01/02 02:52:42;;;;;;;38.40;27.60;;;21.70;78.30;;;;;;1832792;77;21569;-70
2023/01/02 02:55:18;;;;;;;35.08;26.30;;;21.70;78.30;;;;;;1830355;77;21602;-71
2023/01/02 02:57:50;;;;;;;39.38;27.35;;;21.80;78.20;;;;;;1810351;78;21670;-70
2023/01/02 03:00:23;;;;;;;36.28;25.97;;;21.80;77.80;;;;;;1759517;80;21579;-70
2023/01/02 03:02:54;;;;;;;38.13;26.33;;;21.90;78.30;;;;;;1791921;79;21152;-70
2023/01/02 03:05:33;;;;;;;35.38;25.80;;;21.90;77.50;;;;;;1746400;81;21162;-71
2023/01/02 03:08:18;;;;;;;32.45;24.65;;;22.00;77.60;;;;;;1760071;80;21179;-70
2023/01/02 03:11:10;;;;;;;34.63;25.23;;;22.00;76.60;;;;;;1791274;79;21601;-71
2023/01/02 03:13:55;;;;;;;33.23;25.08;;;22.10;76.70;;;;;;1765178;81;22324;-70
2023/01/02 03:16:38;;;;;;;34.60;24.40;;;22.10;76.30;;;;;;1759585;80;21794;-70
2023/01/02 03:19:17;;;;;;;35.75;24.47;;;22.10;76.50;;;;;;1754536;82;21171;-71
2023/01/02 03:21:50;;;;;;;30.80;24.40;;;22.10;76.40;;;;;;1804914;79;21092;-71
2023/01/02 03:24:24;;;;;;;37.00;24.25;;;22.10;76.00;;;;;;1747295;80;21572;-70
2023/01/02 03:26:58;;;;;;;32.35;24.45;;;22.10;75.80;;;;;;1789629;80;21111;-71
2023/01/02 03:29:41;;;;;;;30.60;23.30;;;22.10;76.00;;;;;;1793689;79;21441;-72
2023/01/02 03:32:14;;;;;;;29.75;22.87;;;22.10;76.00;;;;;;1789702;80;21107;-69
2023/01/02 03:34:47;;;;;;;29.85;23.00;;;22.20;75.60;;;;;;1749182;80;21159;-70
2023/01/02 03:37:26;;;;;;;33.40;23.67;;;22.20;75.40;;;;;;1764431;80;21120;-69
2023/01/02 03:40:00;;;;;;;33.73;24.43;;;22.20;75.40;;;;;;1812102;77;21717;-69
2023/01/02 03:42:36;;;;;;;31.45;23.52;;;22.20;75.50;;;;;;1799538;78;21225;-69
2023/01/02 03:45:09;;;;;;;30.92;24.15;;;22.20;75.00;;;;;;1811533;79;21245;-69
2023/01/02 03:47:59;;;;;;;35.95;23.60;;;22.20;75.30;;;;;;1822136;78;21065;-70
2023/01/02 03:50:45;;;;;;;33.58;24.47;;;22.20;75.50;;;;;;1763907;81;21218;-69
2023/01/02 03:53:16;;;;;;;37.17;25.75;;;22.20;75.80;;;;;;1763697;80;21581;-70
2023/01/02 03:55:53;;;;;;;32.85;24.50;;;22.20;75.40;;;;;;1763820;81;21135;-71
2023/01/02 03:58:30;;;;;;;32.67;23.77;;;22.20;75.30;;;;;;1785599;79;21139;-70
2023/01/02 04:01:10;;;;;;;33.88;24.82;;;22.20;75.10;;;;;;1814288;78;21142;-70
2023/01/02 04:03:50;;;;;;;33.67;24.52;;;22.20;75.00;;;;;;1807582;78;21544;-70
2023/01/02 04:06:23;;;;;;;43.23;25.23;;;22.20;74.70;;;;;;1794408;78;21104;-70
2023/01/02 04:09:09;;;;;;;31.33;23.60;;;22.20;75.30;;;;;;1791816;80;22043;-69
2023/01/02 04:11:43;;;;;;;34.90;24.55;;;22.20;75.50;;;;;;1792611;80;21559;-70
2023/01/02 04:14:19;;;;;;;36.08;25.65;;;22.20;75.30;;;;;;1807922;78;21103;-70
2023/01/02 04:16:52;;;;;;;39.30;26.30;;;22.30;75.10;;;;;;1798399;79;21154;-71
2023/01/02 04:19:29;;;;;;;36.05;25.52;;;22.30;75.20;;;;;;1798850;80;21182;-70
2023/01/02 04:22:03;;;;;;;36.70;25.52;;;22.40;75.90;;;;;;1802232;78;21154;-70
2023/01/02 04:24:37;;;;;;;50.50;26.37;;;22.40;75.20;;;;;;1784125;80;21219;-71
2023/01/02 04:27:16;;;;;;;32.80;25.65;;;22.50;75.00;;;;;;1792920;80;21080;-70
2023/01/02 04:29:47;;;;;;;31.17;23.85;;;22.60;74.80;;;;;;1798111;78;21634;-69
2023/01/02 04:32:23;;;;;;;37.05;25.30;;;22.60;74.70;;;;;;1792531;79;21280;-69
2023/01/02 04:34:56;;;;;;;31.15;22.25;;;22.70;74.30;;;;;;1802645;78;21087;-70
2023/01/02 04:37:32;;;;;;;34.67;24.95;;;22.70;74.20;;;;;;1798882;79;21661;-71
2023/01/02 04:40:06;;;;;;;29.18;22.13;;;22.80;73.40;;;;;;1816007;77;21072;-72
2023/01/02 04:42:37;;;;;;;33.65;24.23;;;22.80;73.20;;;;;;1837835;77;21227;-71
2023/01/02 04:45:09;;;;;;;30.88;22.90;;;22.90;73.00;;;;;;1834672;78;21161;-70
2023/01/02 04:47:40;;;;;;;31.30;23.45;;;22.90;73.30;;;;;;1821882;77;21167;-70
2023/01/02 04:50:11;;;;;;;33.65;23.38;;;22.90;73.10;;;;;;1828005;78;21664;-70
2023/01/02 04:52:42;;;;;;;29.15;22.93;;;22.90;73.00;;;;;;1822526;77;21565;-70
2023/01/02 04:55:13;;;;;;;30.02;23.45;;;23.00;72.70;;;;;;1852517;77;21124;-71
2023/01/02 04:57:45;;;;;;;29.35;22.75;;;23.00;72.60;;;;;;1817075;78;21153;-70
2023/01/02 05:00:16;;;;;;;28.30;22.00;;;23.10;72.50;;;;;;1842080;77;21535;-70
2023/01/02 05:02:47;;;;;;;30.25;23.45;;;23.10;72.00;;;;;;1817236;77;21611;-70
2023/01/02 05:05:18;;;;;;;30.25;23.30;;;23.20;71.50;;;;;;1842123;77;21130;-70
2023/01/02 05:07:49;;;;;;;30.50;23.02;;;23.20;71.60;;;;;;1850662;77;21159;-70
2023/01/02 05:10:20;;;;;;;27.15;22.20;;;23.20;71.70;;;;;;1781764;80;21191;-70
2023/01/02 05:12:51;;;;;;;27.20;21.87;;;23.20;71.50;;;;;;1833357;78;21156;-70
2023/01/02 05:15:22;;;;;;;29.75;22.95;;;23.20;71.40;;;;;;1819238;79;21177;-70
2023/01/02 05:17:53;;;;;;;28.77;21.50;;;23.20;71.50;;;;;;1879020;75;21095;-71
2023/01/02 05:20:24;;;;;;;27.75;22.05;;;23.20;71.20;;;;;;1835030;78;21187;-70
2023/01/02 05:25:45;;;;;;;29.45;21.90;;;23.20;71.00;;;;;;1836605;77;21584;-71
2023/01/02 05:28:16;;;;;;;27.00;21.62;;;23.30;71.00;;;;;;1798033;80;21221;-71
2023/01/02 05:30:48;;;;;;;27.02;21.65;;;23.40;70.90;;;;;;1802218;79;21120;-70
2023/01/02 05:33:19;;;;;;;26.87;22.10;;;23.50;70.80;;;;;;1831849;78;21235;-70
2023/01/02 05:35:51;;;;;;;28.70;22.02;;;23.50;70.50;;;;;;1831046;78;21626;-71
2023/01/02 05:38:23;;;;;;;29.25;21.80;;;23.60;70.40;;;;;;1816606;78;21170;-70
2023/01/02 05:41:04;;;;;;;29.50;21.68;;;23.60;70.20;;;;;;1799316;78;21124;-70
2023/01/02 05:43:37;;;;;;;27.25;20.55;;;23.60;70.30;;;;;;1777635;81;21192;-70
2023/01/02 05:46:21;;;;;;;28.25;20.43;;;23.70;70.40;;;;;;1780623;80;21121;-79
2023/01/02 05:48:52;;;;;;;27.55;20.17;;;23.70;70.20;;;;;;1783527;79;21180;-81
2023/01/02 05:51:25;;;;;;;28.40;20.10;;;23.80;70.10;;;;;;1777852;80;21085;-81
2023/01/02 05:53:56;;;;;;;26.20;21.02;;;23.80;70.20;;;;;;1768374;81;21140;-80
2023/01/02 05:56:28;;;;;;;26.70;20.82;;;23.80;70.00;;;;;;1783052;80;21129;-80
2023/01/02 05:59:00;;;;;;;27.62;19.73;;;23.80;70.50;;;;;;1779239;80;21136;-81
2023/01/02 06:01:33;;;;;;;28.62;21.10;;;23.80;69.80;;;;;;1731569;82;21099;-80
2023/01/02 06:04:05;;;;;;;26.27;20.30;;;23.80;69.60;;;;;;1715648;82;22407;-80
2023/01/02 06:06:39;;;;;;;26.17;20.08;;;23.80;70.00;;;;;;1733801;81;21701;-80
2023/01/02 06:09:14;;;;;;;26.95;20.52;;;23.80;69.90;;;;;;1734605;82;21194;-80
2023/01/02 06:11:45;;;;;;;25.40;18.87;;;23.80;70.00;;;;;;1737435;82;21617;-81
2023/01/02 06:14:16;;;;;;;27.48;20.17;;;23.80;70.20;;;;;;1743630;82;21127;-81
2023/01/02 06:16:46;;;;;;;28.40;20.35;;;23.80;70.40;;;;;;1744773;81;21115;-81
2023/01/02 06:19:21;;;;;;;30.30;21.15;;;23.80;70.40;;;;;;1743824;81;21178;-81
2023/01/02 06:21:51;;;;;;;27.73;21.77;;;23.80;70.00;;;;;;1743642;82;21087;-80
2023/01/02 06:24:22;;;;;;;25.60;19.92;;;23.90;70.10;;;;;;1743412;82;21174;-81
2023/01/02 06:26:54;;;;;;;23.73;20.25;;;23.90;71.20;;;;;;1743535;81;21111;-80
2023/01/02 06:29:25;;;;;;;27.58;20.27;;;24.00;70.00;;;;;;1741527;82;21182;-80
2023/01/02 06:31:55;;;;;;;24.23;20.17;;;24.00;69.60;;;;;;1743924;82;21206;-80
2023/01/02 06:34:26;;;;;;;27.02;19.92;;;24.10;69.50;;;;;;1743772;81;21166;-80
2023/01/02 06:36:57;;;;;;;24.92;19.50;;;24.10;69.70;;;;;;1747518;82;21576;-81
2023/01/02 06:39:30;;;;;;;25.50;20.32;;;24.10;69.90;;;;;;1743172;81;21288;-80
2023/01/02 06:42:00;;;;;;;24.43;19.40;;;24.20;69.90;;;;;;1759412;80;21157;-81
2023/01/02 06:44:32;;;;;;;25.75;19.32;;;24.20;69.90;;;;;;1801130;79;21626;-81
2023/01/02 06:47:02;;;;;;;28.47;20.12;;;24.30;70.00;;;;;;1808484;79;21106;-80
2023/01/02 06:49:33;;;;;;;26.17;19.77;;;24.30;69.90;;;;;;1807028;77;21103;-80
2023/01/02 06:52:04;;;;;;;26.73;20.80;;;24.30;69.90;;;;;;1806435;79;21638;-80
2023/01/02 06:54:38;;;;;;;29.27;20.77;;;24.30;69.80;;;;;;1808575;77;21531;-80
2023/01/02 06:57:08;;;;;;;26.33;20.27;;;24.30;69.50;;;;;;1808466;79;21115;-80
2023/01/02 06:59:40;;;;;;;28.00;20.30;;;24.40;69.60;;;;;;1808499;78;21111;-81
2023/01/02 07:02:12;;;;;;;28.05;20.45;;;24.40;69.50;;;;;;1808324;79;21189;-81
2023/01/02 07:04:43;;;;;;;26.90;21.15;;;24.40;69.50;;;;;;1808282;79;21107;-80
2023/01/02 07:07:14;;;;;;;27.67;21.35;;;24.40;69.50;;;;;;1792891;80;21210;-80
2023/01/02 07:09:51;;;;;;;27.48;20.20;;;24.50;69.20;;;;;;1780232;80;21639;-81
2023/01/02 07:12:22;;;;;;;29.70;21.37;;;24.50;68.80;;;;;;1780688;79;21275;-81
2023/01/02 07:14:53;;;;;;;28.45;19.45;;;24.50;69.00;;;;;;1794590;79;21174;-80
2023/01/02 07:17:23;;;;;;;26.42;19.75;;;24.50;69.00;;;;;;1793119;80;21169;-81
2023/01/02 07:19:57;;;;;;;28.02;20.27;;;24.60;69.30;;;;;;1794622;80;21145;-81
2023/01/02 07:22:29;;;;;;;26.80;20.25;;;24.50;69.30;;;;;;1764002;81;21610;-80
2023/01/02 07:25:00;;;;;;;27.37;20.35;;;24.60;69.30;;;;;;1753739;80;21094;-80
2023/01/02 07:27:32;;;;;;;25.08;19.30;;;24.60;69.00;;;;;;1763381;80;21143;-80
2023/01/02 07:30:02;;;;;;;23.32;19.35;;;24.70;69.10;;;;;;1792875;80;21179;-80
2023/01/02 07:32:33;;;;;;;25.92;19.65;;;24.70;69.00;;;;;;1793021;80;21114;-81
2023/01/02 07:35:23;;;;;;;26.42;19.92;;;24.70;68.50;;;;;;1794098;79;21644;-81
2023/01/02 07:37:53;;;;;;;25.95;18.92;;;24.70;68.70;;;;;;1821738;79;21590;-82
2023/01/02 07:40:27;;;;;;;26.87;19.90;;;24.70;68.70;;;;;;1797199;80;21511;-81
2023/01/02 07:42:59;;;;;;;27.02;18.67;;;24.70;68.90;;;;;;1868705;77;21187;-80
2023/01/02 07:45:36;;;;;;;23.75;18.60;;;24.60;69.00;;;;;;1796856;80;21146;-80
2023/01/02 07:48:07;;;;;;;25.37;18.60;;;24.60;69.50;;;;;;1868999;77;21150;-80
2023/01/02 07:50:37;;;;;;;24.07;18.48;;;24.70;69.10;;;;;;1828470;77;21156;-80
2023/01/02 07:53:08;;;;;;;22.15;17.95;;;24.70;69.20;;;;;;1869032;77;21143;-80
2023/01/02 07:55:39;;;;;;;22.05;17.82;;;24.70;69.10;;;;;;1797049;80;21107;-79
2023/01/02 07:58:09;;;;;;;24.07;17.92;;;24.70;69.20;;;;;;1869296;76;21221;-80
2023/01/02 08:00:40;;;;;;;21.20;17.25;;;24.70;69.10;;;;;;1797133;80;21543;-80
2023/01/02 08:03:12;;;;;;;21.25;17.62;;;24.80;69.60;;;;;;1868945;77;21108;-81
2023/01/02 08:05:51;;;;;;;26.25;18.30;;;24.80;69.50;;;;;;1828647;77;21079;-80
2023/01/02 08:08:19;;;;;;;27.73;17.82;;;24.80;69.30;;;;;;1867753;77;22031;-81
2023/01/02 08:10:50;;;;;;;23.60;17.70;;;24.80;69.50;;;;;;1796183;79;21224;-81
2023/01/02 08:13:20;;;;;;;25.43;16.02;;;24.80;69.70;;;;;;1798425;78;21106;-82
2023/01/02 08:15:51;;;;;;;20.75;15.23;;;24.80;69.40;;;;;;1868406;77;21135;-79
2023/01/02 08:18:41;;;;;;;18.20;14.28;;;24.80;69.20;;;;;;1796845;78;21558;-79
2023/01/02 08:21:12;;;;;;;20.55;15.75;;;24.80;69.50;;;;;;1798925;78;21108;-82
2023/01/02 08:23:43;;;;;;;22.00;14.60;;;24.70;69.40;;;;;;1795508;80;21120;-81
2023/01/02 08:26:14;;;;;;;16.25;13.90;;;24.70;69.70;;;;;;1749482;82;21234;-80
2023/01/02 08:28:45;;;;;;;15.80;13.88;;;24.70;70.00;;;;;;1728284;83;21188;-82
2023/01/02 08:31:18;;;;;;;17.15;13.53;;;24.60;70.00;;;;;;1792891;80;21553;-80
2023/01/02 08:33:49;;;;;;;14.75;12.35;;;24.60;70.10;;;;;;1794967;80;21092;-80
2023/01/02 08:36:20;;;;;;;18.15;13.13;;;24.60;70.50;;;;;;1749119;82;21296;-81
2023/01/02 08:38:50;;;;;;;18.10;12.82;;;24.60;70.60;;;;;;1727942;82;22398;-80
2023/01/02 08:41:39;;;;;;;19.12;13.58;;;24.60;70.60;;;;;;1791008;80;21671;-80
2023/01/02 08:44:09;;;;;;;18.17;12.90;;;24.60;70.90;;;;;;1794060;80;21171;-81
2023/01/02 08:46:40;;;;;;;17.12;12.98;;;24.60;71.00;;;;;;1727964;82;21291;-82
2023/01/02 08:49:12;;;;;;;18.02;12.37;;;24.60;71.10;;;;;;1791504;80;21175;-81
2023/01/02 08:51:48;;;;;;;17.55;14.20;;;24.50;71.10;;;;;;1792090;80;21245;-80
2023/01/02 08:54:19;;;;;;;19.62;14.18;;;24.60;71.10;;;;;;1794314;80;21175;-81
2023/01/02 08:56:52;;;;;;;21.05;15.58;;;24.50;70.80;;;;;;1749323;81;21097;-80
2023/01/02 08:59:24;;;;;;;21.27;15.25;;;24.60;71.50;;;;;;1729002;82;21121;-81
2023/01/02 09:01:55;;;;;;;20.23;14.05;;;24.60;70.80;;;;;;1793046;80;21576;-81
2023/01/02 09:04:26;;;;;;;17.35;13.78;;;24.50;70.60;;;;;;1795363;80;21532;-80
2023/01/02 09:06:57;;;;;;;18.45;14.28;;;24.50;70.40;;;;;;1795349;80;21080;-81
2023/01/02 09:09:28;;;;;;;18.62;14.00;;;24.50;70.50;;;;;;1721097;83;21547;-81
2023/01/02 09:11:59;;;;;;;21.25;14.10;;;24.60;70.70;;;;;;1804137;79;21190;-80
2023/01/02 09:14:29;;;;;;;17.45;13.78;;;24.50;70.60;;;;;;1801897;78;21112;-80
2023/01/02 09:17:00;;;;;;;18.20;14.15;;;24.50;70.80;;;;;;1771173;80;21565;-81
2023/01/02 09:19:32;;;;;;;19.48;13.62;;;24.50;70.60;;;;;;1791596;79;21248;-79
2023/01/02 09:22:04;;;;;;;17.30;13.75;;;24.50;70.70;;;;;;1745304;82;21110;-80
2023/01/02 09:24:35;;;;;;;17.67;14.40;;;24.50;70.80;;;;;;1805754;79;21150;-81
2023/01/02 09:27:07;;;;;;;20.75;15.88;;;24.50;70.60;;;;;;1777601;80;21122;-79
2023/01/02 09:29:40;;;;;;;21.07;14.58;;;24.50;70.60;;;;;;1777936;79;21549;-80
2023/01/02 09:32:10;;;;;;;24.35;17.82;;;24.40;70.60;;;;;;1778697;81;21091;-81
2023/01/02 09:34:49;;;;;;;24.37;17.98;;;24.40;70.70;;;;;;1777960;81;21111;-80
2023/01/02 09:37:16;;;;;;;24.20;18.73;;;24.40;70.90;;;;;;1802309;79;21129;-81
2023/01/02 09:39:52;;;;;;;19.10;13.95;;;24.40;70.90;;;;;;1745071;82;21105;-80
2023/01/02 09:42:24;;;;;;;21.17;15.15;;;24.40;70.90;;;;;;1780325;79;21141;-82
2023/01/02 09:44:59;;;;;;;18.82;13.90;;;24.40;70.90;;;;;;1773727;80;21208;-79
2023/01/02 09:47:32;;;;;;;19.07;14.73;;;24.40;72.00;;;;;;1772593;81;21110;-80
2023/01/02 09:50:06;;;;;;;22.60;15.28;;;24.30;71.30;;;;;;1796628;79;21539;-82
2023/01/02 09:52:58;;;;;;;;;;;;;;;;;;;;;
2023/01/02 09:55:47;;;;;;;22.42;14.95;;;24.30;71.80;;;;;;1797057;79;21703;-82
2023/01/02 09:58:36;;;;;;;25.30;16.52;;;24.30;71.90;;;;;;1729379;82;21143;-82
2023/01/02 10:01:25;;;;;;;19.23;15.23;;;24.20;72.10;;;;;;1794671;79;21617;-83
2023/01/02 10:04:03;;;;;;;22.02;16.00;;;24.20;72.30;;;;;;1790116;79;21200;-80
2023/01/02 10:06:36;;;;;;;21.73;14.63;;;24.20;72.50;;;;;;1794055;79;21137;-81
2023/01/02 10:09:10;;;;;;;22.93;16.32;;;24.20;72.70;;;;;;1769576;80;21247;-81
2023/01/02 10:11:57;;;;;;;22.82;14.50;;;24.20;72.70;;;;;;1788657;79;21185;-81
2023/01/02 10:14:43;;;;;;;20.37;15.03;;;24.10;72.80;;;;;;1800172;78;21611;-80
2023/01/02 10:17:22;;;;;;;20.37;14.93;;;24.10;72.90;;;;;;1795945;79;21196;-82
2023/01/02 10:19:58;;;;;;;19.70;14.78;;;24.10;73.80;;;;;;1797612;79;21167;-79
2023/01/02 10:22:37;;;;;;;19.62;14.38;;;24.10;73.00;;;;;;1837302;78;21606;-81
2023/01/02 10:25:22;;;;;;;18.77;14.73;;;24.10;72.80;;;;;;1837094;78;21177;-81
2023/01/02 10:27:58;;;;;;;20.08;14.15;;;24.00;72.80;;;;;;1836312;77;21107;-81
2023/01/02 10:30:40;;;;;;;24.72;15.85;;;24.00;72.90;;;;;;1777659;77;21563;-83
2023/01/02 10:33:17;;;;;;;26.33;19.17;;;24.00;73.00;;;;;;1829224;77;21084;-81
2023/01/02 10:38:49;;;;;;;20.75;15.53;;;24.00;73.10;;;;;;1852409;76;21539;-81
2023/01/02 10:41:22;;;;;;;22.95;15.38;;;24.00;73.20;;;;;;1860350;76;21129;-82
2023/01/02 10:44:06;;;;;;;22.75;15.75;;;23.90;73.10;;;;;;1854035;76;21101;-82
2023/01/02 10:46:38;;;;;;;19.35;14.85;;;23.90;73.10;;;;;;1817506;78;21090;-80
2023/01/02 10:49:13;;;;;;;22.70;14.95;;;23.90;73.10;;;;;;1810404;79;21177;-80
2023/01/02 10:51:46;;;;;;;23.60;15.23;;;23.80;73.00;;;;;;1818869;78;21160;-81
2023/01/02 10:54:17;;;;;;;25.08;16.93;;;23.80;73.00;;;;;;1831409;78;21573;-82
2023/01/02 10:56:50;;;;;;;21.57;16.17;;;23.80;73.00;;;;;;1826765;77;21082;-81
2023/01/02 10:59:26;;;;;;;20.27;15.75;;;23.80;73.00;;;;;;1854189;77;21197;-81
2023/01/02 11:01:58;;;;;;;26.37;17.13;;;23.80;73.00;;;;;;1840407;77;21479;-82
2023/01/02 11:04:33;;;;;;;21.45;15.83;;;23.80;73.00;;;;;;1834760;78;21133;-80
2023/01/02 11:07:04;;;;;;;21.35;16.55;;;23.80;73.00;;;;;;1850941;77;21547;-81
2023/01/02 11:09:39;;;;;;;25.77;18.00;;;23.70;72.90;;;;;;1839879;77;21063;-81
2023/01/02 11:12:14;;;;;;;24.80;16.80;;;23.80;73.10;;;;;;1837201;77;21102;-81
2023/01/02 11:14:49;;;;;;;23.90;16.95;;;23.70;73.10;;;;;;1803820;77;21102;-81
2023/01/02 11:17:26;;;;;;;27.80;17.23;;;23.70;72.90;;;;;;1821021;77;21153;-80
2023/01/02 11:20:00;;;;;;;27.98;18.23;;;23.70;72.90;;;;;;1828700;77;21137;-81
2023/01/02 11:22:54;;;;;;;29.55;19.27;;;23.70;73.00;;;;;;1830270;77;21101;-82
2023/01/02 11:25:41;;;;;;;24.75;16.52;;;23.70;73.20;;;;;;1818336;77;21547;-81
2023/01/02 11:28:27;;;;;;;26.25;17.73;;;23.70;73.10;;;;;;1822582;77;21101;-80
2023/01/02 11:31:09;;;;;;;23.73;17.87;;;23.70;73.20;;;;;;1819299;77;21114;-81
2023/01/02 11:33:45;;;;;;;26.87;18.73;;;23.70;73.20;;;;;;1812506;79;21175;-80
2023/01/02 11:36:18;;;;;;;26.45;18.45;;;23.70;73.20;;;;;;1815880;77;21105;-81
2023/01/02 11:38:52;;;;;;;25.80;18.15;;;23.60;74.20;;;;;;1809585;77;21553;-81
2023/01/02 11:44:02;;;;;;;24.10;18.12;;;23.70;73.40;;;;;;1770538;79;21579;-81
2023/01/02 11:46:36;;;;;;;24.77;18.45;;;23.70;73.50;;;;;;1793503;80;21574;-81
2023/01/02 11:49:21;;;;;;;27.37;18.30;;;23.60;73.40;;;;;;1794910;79;21522;-81
2023/01/02 11:51:56;;;;;;;27.32;19.05;;;23.60;73.50;;;;;;1799730;79;21196;-81
2023/01/02 11:54:32;;;;;;;27.40;17.95;;;23.70;73.70;;;;;;1800946;79;21251;-81
2023/01/02 11:57:04;;;;;;;25.48;18.73;;;23.60;74.60;;;;;;1800575;78;21558;-81
2023/01/02 11:59:40;;;;;;;25.32;18.40;;;23.60;73.70;;;;;;1798556;79;21083;-82
2023/01/02 12:02:19;;;;;;;27.37;18.47;;;23.60;73.90;;;;;;1802502;79;21558;-83
2023/01/02 12:04:50;;;;;;;28.42;18.23;;;23.60;73.90;;;;;;1792768;79;21235;-82
2023/01/02 12:07:45;;;;;;;29.87;19.90;;;23.60;74.00;;;;;;1793279;79;21157;-82
2023/01/02 12:10:40;;;;;;;30.70;21.57;;;23.60;74.00;;;;;;1790725;79;21141;-81
2023/01/02 12:13:44;;;;;;;26.93;21.13;;;23.50;73.90;;;;;;1758615;79;21098;-81
2023/01/02 12:16:29;;;;;;;26.07;20.62;;;23.50;73.90;;;;;;1801411;79;21287;-82
2023/01/02 12:19:05;;;;;;;24.37;18.60;;;23.60;74.00;;;;;;1805380;79;21620;-82
2023/01/02 12:21:47;;;;;;;22.17;17.13;;;23.50;74.00;;;;;;1803576;79;21146;-82
2023/01/02 12:24:29;;;;;;;21.48;17.37;;;23.50;73.90;;;;;;1768176;81;21098;-82
2023/01/02 12:27:09;;;;;;;24.95;17.75;;;23.50;74.00;;;;;;1768723;81;21141;-81
2023/01/02 12:29:51;;;;;;;22.22;17.10;;;23.50;74.20;;;;;;1794025;78;21107;-82
2023/01/02 12:32:44;;;;;;;22.52;16.87;;;23.50;74.10;;;;;;1799223;79;21082;-81
2023/01/02 12:35:24;;;;;;;23.67;16.70;;;23.50;74.10;;;;;;1799145;79;21616;-81
2023/01/02 12:38:00;;;;;;;21.85;16.52;;;23.50;74.00;;;;;;1749936;79;21076;-81
2023/01/02 12:40:43;;;;;;;26.37;17.70;;;23.50;74.10;;;;;;1836600;76;21161;-81
2023/01/02 12:43:21;;;;;;;28.40;17.27;;;23.50;75.20;;;;;;1798517;79;21345;-81
2023/01/02 12:46:27;;;;;;;26.27;17.25;;;23.50;74.10;;;;;;1783005;79;21070;-81
2023/01/02 12:49:26;;;;;;;24.95;16.42;;;23.50;74.20;;;;;;1783547;79;21121;-83
2023/01/02 12:52:04;;;;;;;24.98;16.73;;;23.50;73.90;;;;;;1812059;79;21550;-80
2023/01/02 12:54:52;;;;;;;23.55;17.32;;;23.50;73.90;;;;;;1849004;77;21520;-81
2023/01/02 12:57:28;;;;;;;25.85;17.27;;;23.50;73.90;;;;;;1834546;77;21092;-81
2023/01/02 13:00:18;;;;;;;22.30;17.00;;;23.50;73.90;;;;;;1816874;77;21108;-82
2023/01/02 13:02:58;;;;;;;24.35;17.95;;;23.50;74.00;;;;;;1812469;78;21089;-81
2023/01/02 13:05:34;;;;;;;25.43;18.00;;;23.50;73.90;;;;;;1793181;79;21082;-81
2023/01/02 13:08:22;;;;;;;24.75;17.40;;;23.50;74.00;;;;;;1812113;77;21164;-81
2023/01/02 13:10:54;;;;;;;27.82;19.62;;;23.50;74.00;;;;;;1819424;78;21582;-80
2023/01/02 13:13:27;;;;;;;29.27;19.07;;;23.50;74.00;;;;;;1840118;77;21104;-81
2023/01/02 13:16:00;;;;;;;27.52;18.57;;;23.50;75.20;;;;;;1831791;77;21094;-81
2023/01/02 13:18:35;;;;;;;22.02;17.32;;;23.50;74.10;;;;;;1796756;79;21152;-82
2023/01/02 13:21:30;;;;;;;24.82;16.67;;;23.50;74.10;;;;;;1782810;78;21162;-82